createdAt,value
2022-08-09T00:00:46.295Z,19.7
2022-08-09T00:01:54.462Z,19.7
2022-08-09T00:02:49.269Z,19.5
2022-08-09T00:04:06.105Z,19.5
2022-08-09T00:04:44.478Z,19.6
2022-08-09T00:06:15.346Z,19.5
2022-08-09T00:06:44.539Z,19.5
2022-08-09T00:07:45.265Z,19.4
2022-08-09T00:08:44.467Z,19.4
2022-08-09T00:09:44.663Z,19.4
2022-08-09T00:10:44.688Z,19.4
2022-08-09T00:12:01.531Z,19.4
2022-08-09T00:12:44.483Z,19.3
2022-08-09T00:13:44.632Z,19.2
2022-08-09T00:14:45.324Z,19.2
2022-08-09T00:15:59.869Z,19.2
2022-08-09T00:16:44.483Z,19.1
2022-08-09T00:18:05.642Z,19.2
2022-08-09T00:18:44.451Z,19.3
2022-08-09T00:19:48.029Z,19.3
2022-08-09T00:20:50.419Z,19.2
2022-08-09T00:21:56.748Z,19.2
2022-08-09T00:22:44.827Z,19.2
2022-08-09T00:23:56.505Z,19.2
2022-08-09T00:24:44.452Z,19.3
2022-08-09T00:25:44.487Z,19.3
2022-08-09T00:26:44.463Z,19.3
2022-08-09T00:27:44.466Z,19.2
2022-08-09T00:28:52.799Z,19.2
2022-08-09T00:30:24.690Z,19.3
2022-08-09T00:30:44.474Z,19.2
2022-08-09T00:31:58.473Z,19.2
2022-08-09T00:32:44.478Z,19.2
2022-08-09T00:33:49.096Z,19.2
2022-08-09T00:34:51.937Z,19.3
2022-08-09T00:35:44.502Z,19.2
2022-08-09T00:36:44.502Z,19.1
2022-08-09T00:37:44.469Z,19.1
2022-08-09T00:38:44.458Z,19.2
2022-08-09T00:40:13.434Z,19.1
2022-08-09T00:40:53.266Z,19.1
2022-08-09T00:44:10.467Z,19
2022-08-09T00:44:12.993Z,19.1
2022-08-09T00:44:19.305Z,19
2022-08-09T00:44:46.845Z,19
2022-08-09T00:45:47.442Z,18.9
2022-08-09T00:46:57.804Z,18.8
2022-08-09T00:47:45.440Z,18.8
2022-08-09T00:48:47.607Z,18.8
2022-08-09T00:49:54.624Z,18.8
2022-08-09T00:50:44.470Z,18.8
2022-08-09T00:51:54.368Z,18.9
2022-08-09T00:52:44.477Z,18.7
2022-08-09T00:53:44.465Z,18.6
2022-08-09T00:54:44.942Z,18.6
2022-08-09T00:56:03.916Z,18.7
2022-08-09T00:56:44.483Z,18.7
2022-08-09T00:57:44.470Z,18.7
2022-08-09T00:58:48.979Z,18.7
2022-08-09T00:59:46.361Z,18.6
2022-08-09T01:00:44.481Z,18.5
2022-08-09T01:01:45.407Z,18.5
2022-08-09T01:02:44.475Z,18.5
2022-08-09T01:03:46.208Z,18.5
2022-08-09T01:04:44.475Z,18.6
2022-08-09T01:05:50.681Z,18.6
2022-08-09T01:06:54.729Z,18.6
2022-08-09T01:08:00.367Z,18.7
2022-08-09T01:08:49.743Z,18.8
2022-08-09T01:09:44.475Z,18.6
2022-08-09T01:10:45.195Z,18.6
2022-08-09T01:11:53.335Z,18.5
2022-08-09T01:12:44.475Z,18.5
2022-08-09T01:13:58.875Z,18.5
2022-08-09T01:14:44.483Z,18.4
2022-08-09T01:15:52.070Z,18.4
2022-08-09T01:16:47.466Z,18.3
2022-08-09T01:17:44.474Z,18.3
2022-08-09T01:18:47.650Z,18.3
2022-08-09T01:19:57.006Z,18.4
2022-08-09T01:20:44.479Z,18.4
2022-08-09T01:21:51.229Z,18.3
2022-08-09T01:22:44.472Z,18.3
2022-08-09T01:24:02.212Z,18.2
2022-08-09T01:24:44.489Z,18.3
2022-08-09T01:25:48.882Z,18.3
2022-08-09T01:26:44.478Z,18.3
2022-08-09T01:27:44.514Z,18.3
2022-08-09T01:28:44.485Z,18.3
2022-08-09T01:29:55.059Z,18.2
2022-08-09T01:30:51.818Z,18.2
2022-08-09T01:32:31.851Z,18.2
2022-08-09T01:32:45.969Z,18.2
2022-08-09T01:33:44.478Z,18.3
2022-08-09T01:34:44.474Z,18.2
2022-08-09T01:35:44.490Z,18.2
2022-08-09T01:36:44.473Z,18.2
2022-08-09T01:38:08.376Z,18.1
2022-08-09T01:38:46.539Z,18
2022-08-09T01:39:44.584Z,18.1
2022-08-09T01:40:44.485Z,18
2022-08-09T01:41:53.381Z,17.9
2022-08-09T01:42:44.494Z,17.9
2022-08-09T01:43:51.693Z,17.8
2022-08-09T01:44:44.477Z,17.8
2022-08-09T01:45:44.613Z,17.8
2022-08-09T01:46:46.938Z,17.8
2022-08-09T01:47:45.056Z,17.8
2022-08-09T01:48:44.475Z,17.8
2022-08-09T01:49:48.797Z,17.7
2022-08-09T01:50:48.393Z,17.8
2022-08-09T01:51:53.074Z,17.8
2022-08-09T01:52:44.488Z,17.8
2022-08-09T01:53:44.491Z,17.8
2022-08-09T01:54:44.504Z,17.7
2022-08-09T01:55:44.488Z,17.7
2022-08-09T01:56:51.531Z,17.8
2022-08-09T01:57:46.046Z,17.7
2022-08-09T01:58:44.505Z,17.8
2022-08-09T01:59:51.748Z,17.7
2022-08-09T02:00:46.208Z,17.7
2022-08-09T02:02:00.007Z,17.6
2022-08-09T02:02:44.474Z,17.6
2022-08-09T02:03:44.476Z,17.6
2022-08-09T02:04:45.579Z,17.7
2022-08-09T02:06:04.183Z,17.8
2022-08-09T02:06:45.282Z,17.9
2022-08-09T02:08:41.211Z,17.8
2022-08-09T02:08:58.714Z,17.8
2022-08-09T02:09:44.502Z,17.7
2022-08-09T02:10:50.907Z,17.7
2022-08-09T02:11:44.514Z,17.7
2022-08-09T02:12:44.491Z,17.7
2022-08-09T02:14:06.464Z,17.6
2022-08-09T02:14:44.499Z,17.7
2022-08-09T02:15:49.328Z,17.7
2022-08-09T02:17:00.043Z,17.8
2022-08-09T02:18:00.107Z,17.8
2022-08-09T02:18:47.812Z,17.7
2022-08-09T02:19:44.489Z,17.7
2022-08-09T02:20:44.486Z,17.5
2022-08-09T02:21:44.490Z,17.6
2022-08-09T02:22:46.392Z,17.5
2022-08-09T02:23:44.507Z,17.5
2022-08-09T02:24:44.511Z,17.5
2022-08-09T02:25:49.667Z,17.5
2022-08-09T02:26:44.516Z,17.5
2022-08-09T02:28:00.351Z,17.5
2022-08-09T02:28:44.494Z,17.5
2022-08-09T02:29:44.484Z,17.4
2022-08-09T02:30:44.491Z,17.6
2022-08-09T02:31:44.519Z,17.6
2022-08-09T02:32:44.499Z,17.5
2022-08-09T02:34:07.161Z,17.6
2022-08-09T02:34:51.863Z,17.6
2022-08-09T02:36:01.356Z,17.5
2022-08-09T02:36:44.494Z,17.5
2022-08-09T02:37:44.493Z,17.5
2022-08-09T02:38:47.420Z,17.5
2022-08-09T02:39:44.561Z,17.5
2022-08-09T02:40:44.523Z,17.4
2022-08-09T02:41:44.514Z,17.4
2022-08-09T02:42:44.505Z,17.4
2022-08-09T02:43:54.558Z,17.3
2022-08-09T02:44:44.506Z,17.4
2022-08-09T02:45:44.488Z,17.4
2022-08-09T02:46:44.486Z,17.3
2022-08-09T02:47:57.351Z,17.3
2022-08-09T02:48:45.998Z,17.2
2022-08-09T02:49:44.482Z,17.2
2022-08-09T02:50:44.492Z,17.2
2022-08-09T02:51:44.493Z,17.2
2022-08-09T02:52:44.502Z,17.1
2022-08-09T02:53:53.062Z,17.2
2022-08-09T02:54:54.599Z,17.3
2022-08-09T02:55:57.666Z,17.2
2022-08-09T02:56:48.754Z,17.2
2022-08-09T02:58:00.672Z,17.1
2022-08-09T02:58:44.630Z,17.1
2022-08-09T03:00:11.466Z,17.2
2022-08-09T03:00:57.888Z,17.2
2022-08-09T03:02:06.635Z,17.2
2022-08-09T03:02:58.533Z,17.2
2022-08-09T03:04:18.966Z,17.2
2022-08-09T03:04:44.515Z,17.2
2022-08-09T03:05:44.499Z,17.2
2022-08-09T03:06:44.507Z,17.4
2022-08-09T03:07:54.927Z,17.3
2022-08-09T03:08:44.560Z,17.3
2022-08-09T03:09:54.418Z,17.3
2022-08-09T03:10:44.507Z,17.3
2022-08-09T03:12:10.662Z,17.2
2022-08-09T03:12:44.494Z,17.2
2022-08-09T03:13:59.262Z,17.2
2022-08-09T03:14:44.524Z,17.3
2022-08-09T03:16:06.369Z,17.3
2022-08-09T03:16:47.552Z,17.3
2022-08-09T03:17:44.513Z,17.3
2022-08-09T03:18:44.501Z,17.4
2022-08-09T03:19:58.556Z,17.5
2022-08-09T03:20:44.508Z,17.5
2022-08-09T03:21:44.514Z,17.3
2022-08-09T03:22:44.748Z,17.3
2022-08-09T03:23:44.506Z,17.3
2022-08-09T03:24:52.273Z,17.3
2022-08-09T03:25:59.322Z,17.3
2022-08-09T03:26:44.932Z,17.3
2022-08-09T03:27:45.799Z,17.3
2022-08-09T03:28:44.515Z,17.3
2022-08-09T03:29:57.975Z,17.3
2022-08-09T03:30:44.510Z,17.2
2022-08-09T03:31:59.929Z,17.4
2022-08-09T03:32:45.714Z,17.2
2022-08-09T03:33:54.302Z,17.2
2022-08-09T03:34:44.513Z,17.3
2022-08-09T03:36:13.314Z,17.4
2022-08-09T03:36:58.237Z,17.3
2022-08-09T03:37:54.784Z,17.3
2022-08-09T03:38:44.884Z,17.3
2022-08-09T03:39:48.670Z,17.3
2022-08-09T03:40:44.516Z,17.1
2022-08-09T03:41:45.926Z,17.1
2022-08-09T03:42:44.543Z,17.1
2022-08-09T03:44:03.098Z,17
2022-08-09T03:44:44.525Z,17.1
2022-08-09T03:46:03.949Z,17.1
2022-08-09T03:46:44.512Z,17.2
2022-08-09T03:47:46.751Z,17.2
2022-08-09T03:48:51.376Z,17.3
2022-08-09T03:49:58.800Z,17.3
2022-08-09T03:50:44.519Z,17.1
2022-08-09T03:51:56.013Z,17.2
2022-08-09T03:52:44.538Z,17.1
2022-08-09T03:53:44.524Z,17.1
2022-08-09T03:54:44.505Z,17
2022-08-09T03:55:44.517Z,17
2022-08-09T03:56:44.514Z,17
2022-08-09T03:58:03.500Z,16.9
2022-08-09T03:58:44.523Z,17
2022-08-09T03:59:54.463Z,17
2022-08-09T04:00:44.567Z,17.1
2022-08-09T04:01:44.510Z,17
2022-08-09T04:02:44.848Z,17.2
2022-08-09T04:04:01.035Z,17.1
2022-08-09T04:04:46.374Z,17.2
2022-08-09T04:05:45.061Z,17.2
2022-08-09T04:06:49.246Z,17.3
2022-08-09T04:07:53.319Z,17.1
2022-08-09T04:08:46.698Z,17.1
2022-08-09T04:09:50.078Z,17.2
2022-08-09T04:10:44.515Z,17.2
2022-08-09T04:11:44.536Z,17.1
2022-08-09T04:12:45.138Z,17
2022-08-09T04:13:45.074Z,17.1
2022-08-09T04:15:00.694Z,17.1
2022-08-09T04:16:20.659Z,17.1
2022-08-09T04:16:44.508Z,17
2022-08-09T04:17:44.512Z,16.9
2022-08-09T04:18:44.529Z,16.9
2022-08-09T04:19:51.545Z,16.9
2022-08-09T04:20:44.575Z,16.9
2022-08-09T04:21:44.540Z,16.8
2022-08-09T04:22:44.612Z,16.8
2022-08-09T04:23:53.681Z,16.8
2022-08-09T04:24:44.526Z,16.7
2022-08-09T04:25:44.522Z,16.7
2022-08-09T04:26:44.535Z,16.8
2022-08-09T04:27:48.895Z,16.8
2022-08-09T04:28:46.982Z,16.8
2022-08-09T04:29:49.562Z,16.8
2022-08-09T04:30:44.994Z,16.8
2022-08-09T04:31:47.310Z,16.8
2022-08-09T04:32:46.859Z,16.8
2022-08-09T04:33:52.084Z,16.8
2022-08-09T04:34:47.755Z,16.8
2022-08-09T04:35:44.522Z,16.8
2022-08-09T04:36:50.390Z,16.8
2022-08-09T04:37:46.156Z,16.7
2022-08-09T04:38:44.528Z,16.8
2022-08-09T04:39:44.593Z,16.8
2022-08-09T04:40:44.525Z,16.8
2022-08-09T04:41:44.535Z,16.8
2022-08-09T04:42:44.517Z,16.8
2022-08-09T04:43:51.050Z,16.8
2022-08-09T04:44:49.392Z,16.9
2022-08-09T04:45:53.762Z,16.9
2022-08-09T04:46:58.909Z,17
2022-08-09T04:47:59.374Z,17
2022-08-09T04:48:50.482Z,16.9
2022-08-09T04:49:54.727Z,17
2022-08-09T04:50:44.530Z,17.1
2022-08-09T04:51:44.528Z,17.2
2022-08-09T04:52:44.543Z,17.1
2022-08-09T04:53:44.526Z,17.1
2022-08-09T04:54:44.523Z,17.2
2022-08-09T04:55:59.146Z,17.2
2022-08-09T04:56:44.551Z,17.4
2022-08-09T04:57:58.352Z,17.5
2022-08-09T04:58:44.530Z,17.6
2022-08-09T04:59:44.531Z,17.7
2022-08-09T05:00:44.523Z,17.7
2022-08-09T05:01:44.536Z,17.7
2022-08-09T05:02:48.523Z,17.7
2022-08-09T05:03:44.587Z,17.7
2022-08-09T05:04:44.544Z,17.7
2022-08-09T05:05:51.900Z,17.7
2022-08-09T05:06:44.553Z,17.6
2022-08-09T05:07:46.468Z,17.6
2022-08-09T05:08:47.800Z,17.5
2022-08-09T05:09:49.518Z,17.6
2022-08-09T05:10:44.629Z,17.6
2022-08-09T05:11:44.521Z,17.7
2022-08-09T05:12:44.530Z,17.8
2022-08-09T05:13:44.527Z,17.9
2022-08-09T05:14:44.535Z,17.9
2022-08-09T05:15:48.084Z,18.1
2022-08-09T05:16:58.886Z,18.1
2022-08-09T05:18:38.330Z,18.1
2022-08-09T05:18:58.797Z,18.1
2022-08-09T05:19:46.209Z,18.1
2022-08-09T05:20:44.750Z,18.2
2022-08-09T05:21:47.127Z,18.5
2022-08-09T05:23:55.372Z,18.8
2022-08-09T05:23:57.919Z,18.7
2022-08-09T05:24:44.540Z,18.8
2022-08-09T05:25:44.558Z,18.8
2022-08-09T05:26:46.171Z,18.9
2022-08-09T05:27:46.260Z,18.9
2022-08-09T05:28:44.540Z,18.9
2022-08-09T05:29:44.533Z,18.9
2022-08-09T05:30:47.945Z,18.9
2022-08-09T05:31:47.534Z,18.9
2022-08-09T05:32:44.559Z,19
2022-08-09T05:33:44.610Z,19
2022-08-09T05:34:45.735Z,19
2022-08-09T05:35:46.941Z,19
2022-08-09T05:36:47.264Z,19
2022-08-09T05:37:48.005Z,18.9
2022-08-09T05:38:46.114Z,18.9
2022-08-09T05:39:44.764Z,18.9
2022-08-09T05:40:47.636Z,18.8
2022-08-09T05:41:44.529Z,18.8
2022-08-09T05:42:44.560Z,18.8
2022-08-09T05:43:45.153Z,18.8
2022-08-09T05:44:44.537Z,18.8
2022-08-09T05:45:56.868Z,18.8
2022-08-09T05:46:44.599Z,19
2022-08-09T05:47:52.457Z,19.1
2022-08-09T05:48:44.554Z,19.2
2022-08-09T05:50:23.221Z,19.3
2022-08-09T05:50:50.974Z,19.4
2022-08-09T05:51:46.348Z,19.5
2022-08-09T05:52:44.656Z,19.4
2022-08-09T05:53:56.890Z,19.5
2022-08-09T05:54:44.534Z,19.5
2022-08-09T05:55:44.547Z,19.6
2022-08-09T05:56:55.270Z,19.6
2022-08-09T05:57:56.046Z,19.7
2022-08-09T05:58:44.525Z,19.7
2022-08-09T05:59:45.200Z,19.7
2022-08-09T06:00:44.535Z,19.8
2022-08-09T06:01:44.536Z,19.9
2022-08-09T06:02:46.353Z,20
2022-08-09T06:03:58.010Z,20.1
2022-08-09T06:04:46.265Z,20.1
2022-08-09T06:05:58.216Z,20.1
2022-08-09T06:06:49.932Z,20.2
2022-08-09T06:07:44.561Z,20.2
2022-08-09T06:08:44.547Z,20.3
2022-08-09T06:09:54.695Z,20.5
2022-08-09T06:10:44.555Z,20.6
2022-08-09T06:11:56.885Z,20.6
2022-08-09T06:12:44.564Z,20.8
2022-08-09T06:13:44.548Z,20.8
2022-08-09T06:14:44.555Z,20.7
2022-08-09T06:15:44.550Z,20.7
2022-08-09T06:16:44.542Z,20.6
2022-08-09T06:17:44.558Z,20.6
2022-08-09T06:18:44.544Z,20.7
2022-08-09T06:19:44.556Z,20.6
2022-08-09T06:20:49.939Z,20.6
2022-08-09T06:21:51.595Z,20.6
2022-08-09T06:22:45.640Z,20.7
2022-08-09T06:23:57.994Z,20.7
2022-08-09T06:24:44.546Z,20.8
2022-08-09T06:25:44.542Z,20.8
2022-08-09T06:26:45.350Z,20.8
2022-08-09T06:27:51.487Z,20.8
2022-08-09T06:28:44.549Z,20.9
2022-08-09T06:29:47.737Z,21
2022-08-09T06:30:44.536Z,21.2
2022-08-09T06:32:08.675Z,21.2
2022-08-09T06:33:00.648Z,21.2
2022-08-09T06:33:52.955Z,21.3
2022-08-09T06:34:44.562Z,21.3
2022-08-09T06:35:56.852Z,21.3
2022-08-09T06:36:59.040Z,21.5
2022-08-09T06:37:50.735Z,21.6
2022-08-09T06:38:49.904Z,21.6
2022-08-09T06:39:57.475Z,21.6
2022-08-09T06:40:44.657Z,21.5
2022-08-09T06:42:07.903Z,21.5
2022-08-09T06:42:46.798Z,21.7
2022-08-09T06:43:44.549Z,21.7
2022-08-09T06:44:44.564Z,22.1
2022-08-09T06:46:07.908Z,22.1
2022-08-09T06:46:44.551Z,21.9
2022-08-09T06:47:44.573Z,21.7
2022-08-09T06:48:44.563Z,21.7
2022-08-09T06:50:11.539Z,21.7
2022-08-09T06:50:44.545Z,21.6
2022-08-09T06:51:45.980Z,21.6
2022-08-09T06:52:44.569Z,21.7
2022-08-09T06:53:44.551Z,21.7
2022-08-09T06:54:44.569Z,21.8
2022-08-09T06:55:44.555Z,21.8
2022-08-09T06:56:45.529Z,22
2022-08-09T06:58:03.198Z,21.9
2022-08-09T07:00:51.243Z,21.8
2022-08-09T07:00:51.953Z,21.8
2022-08-09T07:00:55.637Z,21.9
2022-08-09T07:01:53.874Z,21.7
2022-08-09T07:02:44.624Z,21.8
2022-08-09T07:03:52.377Z,22
2022-08-09T07:04:44.553Z,22.1
2022-08-09T07:06:03.090Z,22
2022-08-09T07:06:44.554Z,22
2022-08-09T07:07:59.534Z,22
2022-08-09T07:08:44.554Z,22.1
2022-08-09T07:09:54.932Z,21.9
2022-08-09T07:10:44.559Z,21.8
2022-08-09T07:11:51.942Z,21.8
2022-08-09T07:12:44.703Z,21.8
2022-08-09T07:13:45.534Z,21.7
2022-08-09T07:14:44.556Z,21.8
2022-08-09T07:16:36.090Z,21.9
2022-08-09T07:16:49.074Z,21.9
2022-08-09T07:17:56.150Z,22.1
2022-08-09T07:18:44.557Z,22.2
2022-08-09T07:19:44.566Z,22.3
2022-08-09T07:20:44.654Z,22.2
2022-08-09T07:21:55.640Z,22.1
2022-08-09T07:22:49.539Z,22.1
2022-08-09T07:23:46.595Z,22.1
2022-08-09T07:24:44.607Z,21.9
2022-08-09T07:25:44.560Z,22
2022-08-09T07:26:44.569Z,22.2
2022-08-09T07:27:53.529Z,22.5
2022-08-09T07:29:09.111Z,22.4
2022-08-09T07:29:44.571Z,22.4
2022-08-09T07:30:44.578Z,22.3
2022-08-09T07:31:45.475Z,22.2
2022-08-09T07:32:46.110Z,22.1
2022-08-09T07:33:53.213Z,22.1
2022-08-09T07:34:44.582Z,22
2022-08-09T07:35:53.522Z,21.9
2022-08-09T07:36:38.665Z,21.8
2022-08-09T07:37:45.620Z,21.9
2022-08-09T07:38:50.201Z,22.2
2022-08-09T07:39:44.637Z,22.5
2022-08-09T07:41:09.870Z,22.7
2022-08-09T07:41:44.937Z,22.8
2022-08-09T07:42:44.590Z,22.9
2022-08-09T07:43:56.054Z,23
2022-08-09T07:44:51.681Z,23
2022-08-09T07:45:44.589Z,22.9
2022-08-09T07:46:44.578Z,22.7
2022-08-09T07:48:00.474Z,22.8
2022-08-09T07:48:44.591Z,23.1
2022-08-09T07:50:04.758Z,23.3
2022-08-09T07:50:53.045Z,23.2
2022-08-09T07:52:06.017Z,23.2
2022-08-09T07:52:44.576Z,23.3
2022-08-09T07:54:05.566Z,23.2
2022-08-09T07:54:44.590Z,23
2022-08-09T07:56:05.449Z,22.9
2022-08-09T07:56:49.361Z,23
2022-08-09T07:57:47.202Z,22.9
2022-08-09T07:58:44.579Z,22.8
2022-08-09T07:59:52.108Z,23
2022-08-09T08:00:58.650Z,22.9
2022-08-09T08:01:53.246Z,23
2022-08-09T08:02:47.987Z,22.9
2022-08-09T08:03:44.582Z,23
2022-08-09T08:04:48.823Z,23.3
2022-08-09T08:05:54.303Z,23.2
2022-08-09T08:06:55.567Z,23.4
2022-08-09T08:08:44.195Z,23.4
2022-08-09T08:09:03.694Z,23.4
2022-08-09T08:09:51.836Z,23.5
2022-08-09T08:10:48.704Z,23.7
2022-08-09T08:12:24.167Z,23.9
2022-08-09T08:12:45.394Z,24.1
2022-08-09T08:13:56.650Z,24.1
2022-08-09T08:14:44.586Z,24.1
2022-08-09T08:15:44.576Z,24.2
2022-08-09T08:16:51.061Z,24.3
2022-08-09T08:17:53.571Z,24.5
2022-08-09T08:18:44.586Z,24.7
2022-08-09T08:19:44.603Z,24.7
2022-08-09T08:20:44.580Z,24.8
2022-08-09T08:21:50.897Z,25
2022-08-09T08:22:44.599Z,25
2022-08-09T08:23:44.579Z,24.8
2022-08-09T08:24:49.041Z,25
2022-08-09T08:25:46.540Z,24.6
2022-08-09T08:26:56.141Z,24.5
2022-08-09T08:27:44.585Z,24.5
2022-08-09T08:28:44.620Z,24.3
2022-08-09T08:29:45.443Z,24.1
2022-08-09T08:30:44.617Z,24.3
2022-08-09T08:32:04.130Z,24.6
2022-08-09T08:32:52.438Z,24.6
2022-08-09T08:33:52.293Z,24.5
2022-08-09T08:34:44.590Z,24.6
2022-08-09T08:35:58.483Z,24.5
2022-08-09T08:36:44.617Z,24.6
2022-08-09T08:38:00.028Z,24.8
2022-08-09T08:38:44.620Z,24.8
2022-08-09T08:39:44.691Z,24.8
2022-08-09T08:40:44.659Z,24.8
2022-08-09T08:41:51.594Z,24.7
2022-08-09T08:42:47.088Z,24.4
2022-08-09T08:43:44.589Z,24
2022-08-09T08:44:44.599Z,23.7
2022-08-09T08:45:53.625Z,23.7
2022-08-09T08:47:02.422Z,24.1
2022-08-09T08:47:44.908Z,24.5
2022-08-09T08:48:51.386Z,24.6
2022-08-09T08:49:48.117Z,24.9
2022-08-09T08:50:45.490Z,24.9
2022-08-09T08:52:01.817Z,24.6
2022-08-09T08:52:58.759Z,24.2
2022-08-09T08:54:03.409Z,24
2022-08-09T08:54:44.613Z,24
2022-08-09T08:55:44.740Z,24.4
2022-08-09T08:56:44.613Z,24.7
2022-08-09T08:57:56.827Z,25
2022-08-09T08:58:46.548Z,25
2022-08-09T08:59:47.175Z,25.1
2022-08-09T09:00:45.599Z,24.8
2022-08-09T09:01:44.954Z,24.7
2022-08-09T09:02:44.699Z,24.7
2022-08-09T09:03:44.703Z,24.9
2022-08-09T09:04:48.102Z,25.3
2022-08-09T09:06:00.394Z,25.4
2022-08-09T09:06:44.587Z,25.5
2022-08-09T09:07:44.764Z,25.4
2022-08-09T09:08:44.604Z,25.3
2022-08-09T09:09:59.571Z,25.4
2022-08-09T09:10:44.606Z,25.6
2022-08-09T09:11:44.600Z,25.2
2022-08-09T09:12:44.601Z,25
2022-08-09T09:13:56.554Z,25
2022-08-09T09:14:44.621Z,25.2
2022-08-09T09:15:49.126Z,25.4
2022-08-09T09:16:44.627Z,25.2
2022-08-09T09:17:48.934Z,25
2022-08-09T09:18:51.903Z,24.9
2022-08-09T09:19:44.642Z,25.1
2022-08-09T09:20:44.612Z,25
2022-08-09T09:21:46.865Z,24.8
2022-08-09T09:22:44.612Z,24.8
2022-08-09T09:23:50.031Z,25.1
2022-08-09T09:24:44.756Z,25.4
2022-08-09T09:26:01.628Z,25.7
2022-08-09T09:26:44.808Z,25.9
2022-08-09T09:28:05.700Z,26.1
2022-08-09T09:29:01.923Z,26.1
2022-08-09T09:30:44.614Z,25.9
2022-08-09T09:32:06.305Z,25.6
2022-08-09T09:32:44.614Z,25.8
2022-08-09T09:33:45.295Z,25.9
2022-08-09T09:34:44.813Z,26
2022-08-09T09:35:53.001Z,26.1
2022-08-09T09:36:53.340Z,26.3
2022-08-09T09:37:44.624Z,26.5
2022-08-09T09:38:44.635Z,26.5
2022-08-09T09:39:55.122Z,26.4
2022-08-09T09:40:46.295Z,26.3
2022-08-09T09:41:49.620Z,26.3
2022-08-09T09:42:46.265Z,26.3
2022-08-09T09:44:11.574Z,26.1
2022-08-09T09:44:44.626Z,26
2022-08-09T09:45:56.620Z,25.9
2022-08-09T09:46:50.405Z,26
2022-08-09T09:47:56.684Z,26.2
2022-08-09T09:48:44.649Z,26.3
2022-08-09T09:50:07.571Z,26.4
2022-08-09T09:50:49.527Z,26.6
2022-08-09T09:51:44.611Z,26.7
2022-08-09T09:52:53.514Z,26.9
2022-08-09T09:54:00.987Z,26.8
2022-08-09T09:54:48.806Z,26.9
2022-08-09T09:55:44.621Z,27
2022-08-09T09:58:03.291Z,27.3
2022-08-09T09:58:44.626Z,27
2022-08-09T09:59:44.633Z,27.1
2022-08-09T10:00:44.618Z,26.8
2022-08-09T10:01:44.618Z,26.9
2022-08-09T10:02:44.643Z,26.9
2022-08-09T10:03:57.406Z,27.1
2022-08-09T10:04:44.615Z,27.3
2022-08-09T10:06:00.974Z,27.4
2022-08-09T10:06:47.208Z,27.3
2022-08-09T10:08:11.076Z,27.4
2022-08-09T10:08:54.883Z,27.3
2022-08-09T10:09:48.468Z,27.3
2022-08-09T10:10:44.638Z,27
2022-08-09T10:12:00.279Z,26.8
2022-08-09T10:12:49.840Z,27
2022-08-09T10:13:45.472Z,27.1
2022-08-09T10:14:48.565Z,26.9
2022-08-09T10:16:08.820Z,26.8
2022-08-09T10:16:57.077Z,26.8
2022-08-09T10:17:56.171Z,27
2022-08-09T10:18:44.634Z,27.2
2022-08-09T10:19:45.878Z,27
2022-08-09T10:20:45.525Z,27.1
2022-08-09T10:21:44.636Z,27.2
2022-08-09T10:22:45.030Z,27.4
2022-08-09T10:23:44.626Z,27.6
2022-08-09T10:24:44.620Z,27.8
2022-08-09T10:26:06.459Z,27.7
2022-08-09T10:26:44.635Z,27.5
2022-08-09T10:27:56.002Z,27.3
2022-08-09T10:28:48.748Z,27.4
2022-08-09T10:30:43.614Z,27.2
2022-08-09T10:32:45.036Z,27.1
2022-08-09T10:34:11.033Z,27
2022-08-09T10:34:44.632Z,27
2022-08-09T10:35:44.631Z,27
2022-08-09T10:36:45.146Z,26.9
2022-08-09T10:37:44.635Z,26.9
2022-08-09T10:38:56.825Z,26.8
2022-08-09T10:39:49.432Z,27.1
2022-08-09T10:40:50.001Z,27.3
2022-08-09T10:41:44.638Z,27.3
2022-08-09T10:42:45.939Z,27.2
2022-08-09T10:43:50.680Z,26.9
2022-08-09T10:44:44.690Z,26.8
2022-08-09T10:45:58.433Z,26.9
2022-08-09T10:46:55.270Z,26.8
2022-08-09T10:48:20.112Z,26.9
2022-08-09T10:48:44.631Z,27.1
2022-08-09T10:49:51.774Z,27.5
2022-08-09T10:50:44.660Z,27.7
2022-08-09T10:51:44.643Z,27.8
2022-08-09T10:52:45.032Z,27.9
2022-08-09T10:53:46.911Z,27.9
2022-08-09T10:54:44.713Z,28.1
2022-08-09T10:55:57.703Z,27.9
2022-08-09T10:56:44.666Z,27.9
2022-08-09T10:57:44.679Z,27.7
2022-08-09T10:58:44.643Z,28
2022-08-09T10:59:58.194Z,28.2
2022-08-09T11:01:10.788Z,28.3
2022-08-09T11:03:11.583Z,28.5
2022-08-09T11:03:11.987Z,28.5
2022-08-09T11:03:49.795Z,28.2
2022-08-09T11:04:55.686Z,28.3
2022-08-09T11:06:00.347Z,28.6
2022-08-09T11:06:44.922Z,28.6
2022-08-09T11:07:57.063Z,28.5
2022-08-09T11:08:47.992Z,28.2
2022-08-09T11:09:47.907Z,28
2022-08-09T11:10:47.068Z,28
2022-08-09T11:11:51.670Z,27.8
2022-08-09T11:12:44.635Z,27.9
2022-08-09T11:13:50.155Z,27.8
2022-08-09T11:14:44.646Z,27.8
2022-08-09T11:15:50.768Z,27.7
2022-08-09T11:16:44.649Z,27.9
2022-08-09T11:17:44.653Z,28.2
2022-08-09T11:18:45.042Z,28.4
2022-08-09T11:20:11.650Z,28.3
2022-08-09T11:20:44.668Z,28
2022-08-09T11:21:44.643Z,28
2022-08-09T11:22:44.765Z,27.9
2022-08-09T11:23:47.551Z,28
2022-08-09T11:24:44.657Z,28.3
2022-08-09T11:25:47.650Z,28.4
2022-08-09T11:26:47.395Z,28.5
2022-08-09T11:28:02.873Z,28.6
2022-08-09T11:28:56.136Z,28.3
2022-08-09T11:30:04.439Z,28.2
2022-08-09T11:30:47.713Z,28.4
2022-08-09T11:31:49.919Z,28.6
2022-08-09T11:32:44.687Z,28.6
2022-08-09T11:33:44.659Z,28.8
2022-08-09T11:34:44.655Z,28.8
2022-08-09T11:35:49.934Z,28.7
2022-08-09T11:36:44.663Z,28.9
2022-08-09T11:37:44.694Z,29
2022-08-09T11:38:44.686Z,29.1
2022-08-09T11:39:44.695Z,29.1
2022-08-09T11:40:44.660Z,29.2
2022-08-09T11:41:45.213Z,29.3
2022-08-09T11:42:44.920Z,29.4
2022-08-09T11:43:44.668Z,29.6
2022-08-09T11:44:44.672Z,29.7
2022-08-09T11:45:44.655Z,29.8
2022-08-09T11:46:44.676Z,29.7
2022-08-09T11:47:44.667Z,29.5
2022-08-09T11:48:44.667Z,29.5
2022-08-09T11:50:53.293Z,29.2
2022-08-09T11:50:55.663Z,29.6
2022-08-09T11:53:00.699Z,28.9
2022-08-09T11:53:02.836Z,29
2022-08-09T11:54:00.491Z,29.1
2022-08-09T11:54:44.673Z,29.2
2022-08-09T11:55:52.445Z,29.3
2022-08-09T11:56:47.799Z,29.2
2022-08-09T11:57:56.850Z,29.2
2022-08-09T11:58:48.162Z,29.2
2022-08-09T11:59:44.675Z,29.1
2022-08-09T12:00:44.713Z,28.7
2022-08-09T12:02:16.246Z,28.7
2022-08-09T12:02:44.781Z,28.8
2022-08-09T12:03:56.181Z,28.9
2022-08-09T12:04:44.716Z,29.1
2022-08-09T12:05:47.051Z,29.5
2022-08-09T12:06:53.088Z,29.7
2022-08-09T12:07:44.674Z,30
2022-08-09T12:08:44.731Z,30.2
2022-08-09T12:09:50.648Z,30.3
2022-08-09T12:10:44.686Z,30.3
2022-08-09T12:12:03.017Z,30.2
2022-08-09T12:12:44.677Z,30.1
2022-08-09T12:14:08.138Z,30.4
2022-08-09T12:15:04.290Z,30.3
2022-08-09T12:15:49.516Z,30.3
2022-08-09T12:16:44.692Z,30.4
2022-08-09T12:17:48.912Z,30.3
2022-08-09T12:18:44.674Z,30.1
2022-08-09T12:19:44.682Z,29.9
2022-08-09T12:20:44.681Z,29.9
2022-08-09T12:21:50.682Z,29.9
2022-08-09T12:22:45.676Z,29.5
2022-08-09T12:23:56.568Z,29.6
2022-08-09T12:24:44.688Z,29.6
2022-08-09T12:25:49.424Z,29.7
2022-08-09T12:28:59.533Z,29.7
2022-08-09T12:29:00.008Z,29.9
2022-08-09T12:29:13.169Z,29.6
2022-08-09T12:29:54.556Z,29.8
2022-08-09T12:30:44.691Z,29.6
2022-08-09T12:32:02.670Z,29.2
2022-08-09T12:32:44.700Z,29.3
2022-08-09T12:33:58.433Z,29.4
2022-08-09T12:34:44.697Z,29.3
2022-08-09T12:35:44.693Z,29.4
2022-08-09T12:36:44.689Z,29.4
2022-08-09T12:37:50.426Z,29.3
2022-08-09T12:38:44.695Z,29
2022-08-09T12:39:44.749Z,29
2022-08-09T12:40:44.696Z,28.8
2022-08-09T12:41:44.707Z,28.6
2022-08-09T12:42:44.710Z,28.5
2022-08-09T12:44:05.234Z,28.7
2022-08-09T12:44:46.497Z,28.6
2022-08-09T12:45:44.689Z,28.6
2022-08-09T12:46:44.685Z,28.4
2022-08-09T12:47:50.450Z,28.3
2022-08-09T12:48:44.690Z,28.2
2022-08-09T12:49:52.900Z,28.4
2022-08-09T12:50:44.689Z,28.5
2022-08-09T12:52:01.734Z,28.6
2022-08-09T12:53:09.686Z,28.8
2022-08-09T12:53:52.885Z,29
2022-08-09T12:54:44.701Z,29
2022-08-09T12:56:14.243Z,29.1
2022-08-09T12:56:48.503Z,29.3
2022-08-09T12:57:46.280Z,29.5
2022-08-09T12:58:45.337Z,29.7
2022-08-09T13:00:02.950Z,29.9
2022-08-09T13:00:44.861Z,30
2022-08-09T13:01:48.801Z,29.9
2022-08-09T13:02:44.697Z,29.9
2022-08-09T13:03:57.394Z,29.6
2022-08-09T13:04:44.751Z,29.4
2022-08-09T13:05:52.511Z,29.4
2022-08-09T13:06:44.718Z,29.3
2022-08-09T13:07:51.260Z,29.4
2022-08-09T13:08:49.044Z,29.4
2022-08-09T13:09:55.433Z,29.5
2022-08-09T13:10:44.709Z,29.6
2022-08-09T13:11:44.713Z,29.6
2022-08-09T13:13:10.122Z,29.8
2022-08-09T13:14:42.232Z,29.7
2022-08-09T13:14:48.746Z,29.8
2022-08-09T13:15:44.720Z,29.8
2022-08-09T13:16:44.897Z,29.8
2022-08-09T13:18:05.061Z,29.7
2022-08-09T13:18:44.705Z,29.7
2022-08-09T13:20:06.899Z,29.8
2022-08-09T13:21:04.025Z,29.8
2022-08-09T13:22:37.084Z,29.9
2022-08-09T13:23:05.415Z,29.8
2022-08-09T13:24:16.391Z,29.7
2022-08-09T13:24:53.191Z,29.6
2022-08-09T13:25:55.103Z,29.6
2022-08-09T13:26:44.731Z,29.3
2022-08-09T13:27:48.541Z,29.2